createdAt,value
2023-04-02T00:01:38.491Z,94081.59
2023-04-02T00:04:21.977Z,94074.59
2023-04-02T00:06:54.173Z,94082.38
2023-04-02T00:09:33.165Z,94077.50
2023-04-02T00:12:15.368Z,94083.97
2023-04-02T00:14:47.480Z,94081.00
2023-04-02T00:17:14.625Z,94082.59
2023-04-02T00:19:45.617Z,94084.44
2023-04-02T00:22:16.503Z,94085.00
2023-04-02T00:24:44.447Z,94081.00
2023-04-02T00:27:12.651Z,94074.59
2023-04-02T00:29:46.384Z,94076.63
2023-04-02T00:32:20.252Z,94081.31
2023-04-02T00:34:46.974Z,94082.03
2023-04-02T00:37:18.306Z,94085.34
2023-04-02T00:39:46.294Z,94080.78
2023-04-02T00:42:13.318Z,94088.88
2023-04-02T00:44:44.618Z,94074.63
2023-04-02T00:47:15.538Z,94081.69
2023-04-02T00:49:43.320Z,94082.84
2023-04-02T00:52:12.894Z,94074.97
2023-04-02T00:54:44.009Z,94085.97
2023-04-02T00:57:20.225Z,94086.84
2023-04-02T00:59:56.196Z,94089.00
2023-04-02T01:02:29.150Z,94080.84
2023-04-02T01:04:58.574Z,94084.28
2023-04-02T01:07:47.368Z,94087.13
2023-04-02T01:10:26.427Z,94095.69
2023-04-02T01:13:08.054Z,94091.56
2023-04-02T01:15:39.940Z,94093.84
2023-04-02T01:18:33.235Z,94096.44
2023-04-02T01:21:25.401Z,94101.03
2023-04-02T01:23:59.265Z,94098.75
2023-04-02T01:26:40.825Z,94102.59
2023-04-02T01:29:12.804Z,94106.50
2023-04-02T01:31:40.857Z,94103.78
2023-04-02T01:34:11.204Z,94105.72
2023-04-02T01:36:48.404Z,94109.53
2023-04-02T01:39:39.791Z,94105.97
2023-04-02T01:42:17.031Z,94112.59
2023-04-02T01:44:48.740Z,94126.81
2023-04-02T01:47:18.460Z,94125.78
2023-04-02T01:49:45.797Z,94128.19
2023-04-02T01:52:16.125Z,94128.41
2023-04-02T01:54:43.333Z,94120.19
2023-04-02T01:57:10.555Z,94121.09
2023-04-02T01:59:37.368Z,94119.13
2023-04-02T02:02:09.184Z,94129.38
2023-04-02T02:04:35.868Z,94127.69
2023-04-02T02:07:03.756Z,94128.66
2023-04-02T02:09:34.066Z,94131.75
2023-04-02T02:12:02.851Z,94142.97
2023-04-02T02:14:31.295Z,94139.66
2023-04-02T02:17:02.062Z,94141.91
2023-04-02T02:19:36.138Z,94140.72
2023-04-02T02:22:12.039Z,94142.97
2023-04-02T02:24:38.988Z,94137.75
2023-04-02T02:27:26.947Z,94138.78
2023-04-02T02:29:57.687Z,94148.31
2023-04-02T02:32:29.068Z,94147.03
2023-04-02T02:35:03.811Z,94143.72
2023-04-02T02:37:37.371Z,94143.84
2023-04-02T02:40:08.445Z,94145.91
2023-04-02T02:42:38.791Z,94137.53
2023-04-02T02:45:12.927Z,94130.56
2023-04-02T02:47:43.830Z,94140.06
2023-04-02T02:50:19.448Z,94134.00
2023-04-02T02:52:50.916Z,94129.53
2023-04-02T02:55:19.870Z,94131.34
2023-04-02T02:57:48.958Z,94136.41
2023-04-02T03:00:17.852Z,94140.53
2023-04-02T03:02:44.905Z,94138.69
2023-04-02T03:05:17.995Z,94135.25
2023-04-02T03:07:44.720Z,94148.44
2023-04-02T03:10:17.629Z,94143.41
2023-04-02T03:12:51.691Z,94149.66
2023-04-02T03:15:23.182Z,94150.28
2023-04-02T03:17:53.346Z,94141.56
2023-04-02T03:20:27.531Z,94154.13
2023-04-02T03:22:57.669Z,94152.78
2023-04-02T03:25:34.411Z,94154.97
2023-04-02T03:28:04.805Z,94146.19
2023-04-02T03:30:38.537Z,94147.31
2023-04-02T03:33:11.795Z,94153.16
2023-04-02T03:35:45.969Z,94146.63
2023-04-02T03:38:17.167Z,94156.81
2023-04-02T03:40:58.043Z,94158.66
2023-04-02T03:43:26.971Z,94163.81
2023-04-02T03:45:58.082Z,94158.41
2023-04-02T03:48:31.203Z,94155.69
2023-04-02T03:51:06.377Z,94166.44
2023-04-02T03:53:33.605Z,94171.03
2023-04-02T03:56:02.198Z,94171.16
2023-04-02T03:58:34.912Z,94174.69
2023-04-02T04:01:08.392Z,94182.22
2023-04-02T04:03:41.815Z,94177.88
2023-04-02T04:06:15.607Z,94183.50
2023-04-02T04:08:46.921Z,94190.63
2023-04-02T04:11:16.960Z,94192.06
2023-04-02T04:13:51.389Z,94198.38
2023-04-02T04:16:22.511Z,94197.34
2023-04-02T04:18:57.400Z,94201.34
2023-04-02T04:21:31.137Z,94195.63
2023-04-02T04:24:05.797Z,94205.69
2023-04-02T04:26:39.479Z,94223.41
2023-04-02T04:29:15.341Z,94211.59
2023-04-02T04:31:47.104Z,94215.53
2023-04-02T04:34:18.177Z,94219.91
2023-04-02T04:36:54.038Z,94220.25
2023-04-02T04:39:29.546Z,94218.06
2023-04-02T04:41:59.488Z,94221.16
2023-04-02T04:44:39.914Z,94225.84
2023-04-02T04:47:10.780Z,94226.50
2023-04-02T04:49:44.195Z,94230.66
2023-04-02T04:52:19.027Z,94242.16
2023-04-02T04:54:46.504Z,94233.25
2023-04-02T04:57:27.762Z,94237.03
2023-04-02T05:00:01.241Z,94234.19
2023-04-02T05:02:32.304Z,94237.06
2023-04-02T05:05:02.881Z,94249.31
2023-04-02T05:07:43.064Z,94247.94
2023-04-02T05:10:17.827Z,94248.84
2023-04-02T05:12:51.498Z,94257.78
2023-04-02T05:15:25.065Z,94264.50
2023-04-02T05:17:59.582Z,94264.88
2023-04-02T05:20:31.762Z,94269.22
2023-04-02T05:23:05.939Z,94270.34
2023-04-02T05:25:33.465Z,94273.66
2023-04-02T05:28:05.723Z,94281.59
2023-04-02T05:30:49.618Z,94295.63
2023-04-02T05:33:23.297Z,94285.53
2023-04-02T05:35:57.472Z,94295.28
2023-04-02T05:38:28.263Z,94288.75
2023-04-02T05:41:01.094Z,94288.53
2023-04-02T05:43:31.839Z,94291.28
2023-04-02T05:46:03.680Z,94295.53
2023-04-02T05:48:36.372Z,94300.56
2023-04-02T05:51:05.470Z,94300.66
2023-04-02T05:53:36.509Z,94311.19
2023-04-02T05:56:10.783Z,94321.16
2023-04-02T05:58:45.560Z,94308.88
2023-04-02T06:01:29.702Z,94316.56
2023-04-02T06:04:02.842Z,94323.19
2023-04-02T06:06:43.488Z,94326.53
2023-04-02T06:09:15.665Z,94329.34
2023-04-02T06:11:46.289Z,94330.03
2023-04-02T06:14:15.518Z,94330.91
2023-04-02T06:16:44.363Z,94330.97
2023-04-02T06:19:18.917Z,94326.03
2023-04-02T06:21:45.977Z,94322.84
2023-04-02T06:24:19.822Z,94322.19
2023-04-02T06:26:51.456Z,94329.59
2023-04-02T06:29:24.118Z,94339.66
2023-04-02T06:31:53.925Z,94331.75
2023-04-02T06:34:22.428Z,94340.00
2023-04-02T06:36:51.379Z,94340.69
2023-04-02T06:39:22.775Z,94337.66
2023-04-02T06:41:58.692Z,94352.13
2023-04-02T06:44:28.092Z,94352.84
2023-04-02T06:46:58.300Z,94359.06
2023-04-02T06:49:32.622Z,94352.41
2023-04-02T06:52:02.558Z,94360.66
2023-04-02T06:54:31.162Z,94360.72
2023-04-02T06:56:57.789Z,94360.94
2023-04-02T06:59:25.018Z,94363.81
2023-04-02T07:01:55.382Z,94364.19
2023-04-02T07:04:22.491Z,94366.47
2023-04-02T07:06:49.235Z,94370.69
2023-04-02T07:09:16.972Z,94368.50
2023-04-02T07:11:46.015Z,94373.81
2023-04-02T07:14:13.299Z,94382.88
2023-04-02T07:16:41.536Z,94373.56
2023-04-02T07:19:17.047Z,94376.75
2023-04-02T07:21:43.681Z,94383.69
2023-04-02T07:24:10.331Z,94382.34
2023-04-02T07:26:37.303Z,94379.19
2023-04-02T07:29:06.849Z,94390.94
2023-04-02T07:31:33.548Z,94387.88
2023-04-02T07:34:00.724Z,94384.84
2023-04-02T07:36:28.648Z,94399.06
2023-04-02T07:38:55.870Z,94393.69
2023-04-02T07:41:23.267Z,94396.19
2023-04-02T07:43:50.015Z,94391.22
2023-04-02T07:46:20.044Z,94399.16
2023-04-02T07:48:47.193Z,94398.94
2023-04-02T07:51:19.371Z,94403.91
2023-04-02T07:53:50.050Z,94405.00
2023-04-02T07:56:18.459Z,94414.69
2023-04-02T07:58:45.122Z,94411.25
2023-04-02T08:01:19.310Z,94407.50
2023-04-02T08:03:46.387Z,94411.78
2023-04-02T08:06:13.639Z,94405.34
2023-04-02T08:08:41.080Z,94408.44
2023-04-02T08:11:07.998Z,94403.97
2023-04-02T08:13:34.972Z,94415.03
2023-04-02T08:16:02.856Z,94405.78
2023-04-02T08:18:30.988Z,94407.53
2023-04-02T08:20:58.275Z,94408.63
2023-04-02T08:23:24.970Z,94414.72
2023-04-02T08:25:51.930Z,94408.00
2023-04-02T08:28:18.515Z,94411.50
2023-04-02T08:30:45.555Z,94414.00
2023-04-02T08:33:12.243Z,94413.44
2023-04-02T08:35:40.647Z,94411.44
2023-04-02T08:38:07.744Z,94421.50
2023-04-02T08:40:37.653Z,94418.47
2023-04-02T08:43:16.052Z,94419.25
2023-04-02T08:45:55.555Z,94423.66
2023-04-02T08:48:23.371Z,94432.94
2023-04-02T08:50:52.092Z,94428.88
2023-04-02T08:53:22.392Z,94432.09
2023-04-02T08:55:59.646Z,94428.47
2023-04-02T08:58:35.842Z,94430.91
2023-04-02T09:01:05.777Z,94437.94
2023-04-02T09:03:36.568Z,94435.03
2023-04-02T09:06:09.885Z,94428.91
2023-04-02T09:08:36.857Z,94440.84
2023-04-02T09:11:07.891Z,94437.19
2023-04-02T09:13:37.614Z,94438.41
2023-04-02T09:16:09.742Z,94446.69
2023-04-02T09:18:38.396Z,94449.09
2023-04-02T09:21:28.187Z,94458.16
2023-04-02T09:23:55.155Z,94454.59
2023-04-02T09:26:23.749Z,94451.38
2023-04-02T09:28:52.776Z,94450.06
2023-04-02T09:31:23.857Z,94444.81
2023-04-02T09:33:51.614Z,94447.81
2023-04-02T09:36:35.424Z,94456.19
2023-04-02T09:39:06.965Z,94455.63
2023-04-02T09:41:36.863Z,94454.59
2023-04-02T09:44:22.322Z,94450.19
2023-04-02T09:46:54.462Z,94463.44
2023-04-02T09:49:24.621Z,94469.38
2023-04-02T09:52:09.345Z,94461.69
2023-04-02T09:54:41.867Z,94464.47
2023-04-02T09:57:21.154Z,94466.63
2023-04-02T09:59:47.796Z,94460.38
2023-04-02T10:02:25.004Z,94463.19
2023-04-02T10:04:52.214Z,94472.75
2023-04-02T10:07:42.887Z,94478.13
2023-04-02T10:10:19.434Z,94481.09
2023-04-02T10:12:51.443Z,94477.78
2023-04-02T10:15:25.739Z,94471.66
2023-04-02T10:17:59.908Z,94477.81
2023-04-02T10:20:30.522Z,94481.97
2023-04-02T10:23:00.138Z,94487.09
2023-04-02T10:25:34.377Z,94489.94
2023-04-02T10:28:08.953Z,94488.78
2023-04-02T10:30:48.922Z,94487.47
2023-04-02T10:33:21.995Z,94485.31
2023-04-02T10:35:55.609Z,94496.78
2023-04-02T10:38:34.456Z,94490.84
2023-04-02T10:41:07.735Z,94492.94
2023-04-02T10:44:24.022Z,94501.69
2023-04-02T10:47:03.603Z,94504.38
2023-04-02T10:49:40.059Z,94508.34
2023-04-02T10:52:10.506Z,94506.84
2023-04-02T10:54:43.010Z,94507.25
2023-04-02T10:57:22.008Z,94515.63
2023-04-02T10:59:54.636Z,94519.25
2023-04-02T11:02:36.350Z,94516.47
2023-04-02T11:05:13.067Z,94511.53
2023-04-02T11:07:49.187Z,94515.06
2023-04-02T11:10:19.962Z,94514.84
2023-04-02T11:12:52.665Z,94511.63
2023-04-02T11:15:20.751Z,94510.06
2023-04-02T11:17:48.182Z,94526.50
2023-04-02T11:20:57.830Z,94516.66
2023-04-02T11:23:27.522Z,94515.81
2023-04-02T11:26:31.093Z,94515.53
2023-04-02T11:29:04.675Z,94493.78
2023-04-02T11:31:31.560Z,94504.50
2023-04-02T11:33:58.226Z,94517.81
2023-04-02T11:37:00.893Z,94522.03
2023-04-02T11:39:53.464Z,94517.25
2023-04-02T11:42:27.859Z,94513.66
2023-04-02T11:44:56.614Z,94514.28
2023-04-02T11:47:24.949Z,94511.56
2023-04-02T11:50:27.261Z,94520.78
2023-04-02T11:52:56.053Z,94520.22
2023-04-02T11:55:28.813Z,94530.00
2023-04-02T11:58:30.025Z,94531.47
2023-04-02T12:01:24.530Z,94534.34
2023-04-02T12:04:07.755Z,94540.16
2023-04-02T12:06:48.087Z,94550.59
2023-04-02T12:09:20.745Z,94553.28
2023-04-02T12:11:49.854Z,94560.56
2023-04-02T12:14:41.679Z,94563.91
2023-04-02T12:17:18.412Z,94570.88
2023-04-02T12:19:49.844Z,94571.91
2023-04-02T12:22:21.559Z,94578.84
2023-04-02T12:24:49.391Z,94579.34
2023-04-02T12:27:22.650Z,94582.56
2023-04-02T12:29:52.183Z,94578.94
2023-04-02T12:32:29.630Z,94577.16
2023-04-02T12:35:04.544Z,94590.13
2023-04-02T12:37:31.412Z,94588.31
2023-04-02T12:39:59.886Z,94587.84
2023-04-02T12:42:29.345Z,94590.00
2023-04-02T12:44:57.413Z,94589.72
2023-04-02T12:47:24.787Z,94594.97
2023-04-02T12:49:52.372Z,94596.34
2023-04-02T12:52:22.024Z,94594.25
2023-04-02T12:54:49.271Z,94597.75
2023-04-02T12:57:40.184Z,94595.00
2023-04-02T13:00:36.704Z,94590.13
2023-04-02T13:03:19.334Z,94591.19
2023-04-02T13:05:50.884Z,94589.09
2023-04-02T13:08:20.179Z,94593.47
2023-04-02T13:10:53.231Z,94599.19
2023-04-02T13:13:24.742Z,94593.81
2023-04-02T13:16:03.633Z,94590.13
2023-04-02T13:18:31.856Z,94589.44
2023-04-02T13:20:59.472Z,94576.53
2023-04-02T13:23:36.432Z,94583.34
2023-04-02T13:26:14.726Z,94588.50
2023-04-02T13:28:41.626Z,94592.81
2023-04-02T13:31:14.696Z,94590.97
2023-04-02T13:33:41.674Z,94585.63
2023-04-02T13:36:12.768Z,94588.75
2023-04-02T13:38:39.383Z,94590.97
2023-04-02T13:41:06.154Z,94585.84
2023-04-02T13:43:32.769Z,94599.13
2023-04-02T13:46:01.104Z,94590.28
2023-04-02T13:48:29.065Z,94587.06
2023-04-02T13:50:55.763Z,94585.97
2023-04-02T13:53:28.205Z,94583.69
2023-04-02T13:55:55.513Z,94586.16
2023-04-02T13:58:22.860Z,94591.91
2023-04-02T14:00:50.019Z,94597.44
2023-04-02T14:03:21.811Z,94599.56
2023-04-02T14:05:58.074Z,94594.03
2023-04-02T14:08:37.428Z,94593.41
2023-04-02T14:11:15.044Z,94596.81
2023-04-02T14:14:08.160Z,94596.34
2023-04-02T14:16:52.606Z,94591.53
2023-04-02T14:19:34.497Z,94606.41
2023-04-02T14:22:14.515Z,94596.03
2023-04-02T14:24:51.274Z,94597.91
2023-04-02T14:27:27.122Z,94605.63
2023-04-02T14:30:01.584Z,94613.31
2023-04-02T14:32:37.318Z,94603.16
2023-04-02T14:35:13.135Z,94602.25
2023-04-02T14:37:50.608Z,94601.00
2023-04-02T14:40:26.089Z,94597.31
2023-04-02T14:42:57.477Z,94595.19
2023-04-02T14:45:38.857Z,94601.69
2023-04-02T14:48:12.574Z,94601.16
2023-04-02T14:50:41.778Z,94597.38
2023-04-02T14:53:18.883Z,94606.34
2023-04-02T14:55:49.694Z,94603.28
2023-04-02T14:58:21.422Z,94602.94
2023-04-02T15:00:56.632Z,94599.88
2023-04-02T15:03:27.683Z,94612.56
2023-04-02T15:05:57.935Z,94612.38
2023-04-02T15:08:28.740Z,94612.63
2023-04-02T15:11:04.932Z,94612.56
2023-04-02T15:13:38.156Z,94616.16
2023-04-02T15:16:13.442Z,94617.69
2023-04-02T15:18:40.652Z,94615.91
2023-04-02T15:21:25.535Z,94620.53
2023-04-02T15:24:01.564Z,94623.31
2023-04-02T15:26:36.643Z,94627.38
2023-04-02T15:29:25.875Z,94618.25
2023-04-02T15:32:05.487Z,94630.69
2023-04-02T15:34:38.983Z,94630.69
2023-04-02T15:37:15.824Z,94636.44
2023-04-02T15:39:52.165Z,94631.81
2023-04-02T15:42:23.568Z,94635.88
2023-04-02T15:45:31.500Z,94653.22
2023-04-02T15:48:28.066Z,94655.31
2023-04-02T15:51:07.014Z,94663.16
2023-04-02T15:53:43.614Z,94687.00
2023-04-02T15:56:25.160Z,94698.63
2023-04-02T15:59:28.816Z,94708.66
2023-04-02T16:02:06.922Z,94713.50
2023-04-02T16:04:52.427Z,94716.81
2023-04-02T16:07:34.399Z,94724.88
2023-04-02T16:10:12.741Z,94728.72
2023-04-02T16:12:41.623Z,94736.31
2023-04-02T16:15:16.417Z,94740.78
2023-04-02T16:17:47.033Z,94749.00
2023-04-02T16:20:19.858Z,94749.84
2023-04-02T16:22:59.994Z,94756.28
2023-04-02T16:25:31.488Z,94772.22
2023-04-02T16:28:12.130Z,94780.34
2023-04-02T16:30:49.481Z,94779.69
2023-04-02T16:33:42.755Z,94785.16
2023-04-02T16:36:20.089Z,94781.31
2023-04-02T16:38:57.511Z,94784.63
2023-04-02T16:41:35.752Z,94782.97
2023-04-02T16:44:20.005Z,94790.03
2023-04-02T16:46:57.723Z,94794.97
2023-04-02T16:49:36.113Z,94802.13
2023-04-02T16:52:13.923Z,94798.84
2023-04-02T16:54:48.449Z,94809.13
2023-04-02T16:57:27.765Z,94807.66
2023-04-02T17:00:06.600Z,94806.84
2023-04-02T17:02:46.773Z,94802.78
2023-04-02T17:05:27.048Z,94812.44
2023-04-02T17:08:03.520Z,94822.34
2023-04-02T17:10:32.447Z,94828.28
2023-04-02T17:13:18.852Z,94819.75
2023-04-02T17:15:51.472Z,94822.97
2023-04-02T17:18:20.805Z,94830.84
2023-04-02T17:20:47.891Z,94833.34
2023-04-02T17:23:16.765Z,94833.47
2023-04-02T17:25:49.036Z,94823.06
2023-04-02T17:28:25.192Z,94823.81
2023-04-02T17:30:55.408Z,94830.78
2023-04-02T17:33:25.027Z,94832.53
2023-04-02T17:35:58.360Z,94819.53
2023-04-02T17:38:35.080Z,94826.41
2023-04-02T17:41:09.849Z,94839.88
2023-04-02T17:43:45.269Z,94814.81
2023-04-02T17:46:22.496Z,94833.16
2023-04-02T17:48:55.998Z,94836.84
2023-04-02T17:51:31.833Z,94828.31
2023-04-02T17:54:15.495Z,94834.53
2023-04-02T17:57:00.235Z,94842.63
2023-04-02T17:59:51.409Z,94840.66
2023-04-02T18:02:37.974Z,94846.53
2023-04-02T18:05:14.796Z,94849.06
2023-04-02T18:07:49.675Z,94856.66
2023-04-02T18:10:27.097Z,94852.25
2023-04-02T18:12:57.627Z,94858.16
2023-04-02T18:16:01.398Z,94862.97
2023-04-02T18:18:58.316Z,94873.91
2023-04-02T18:21:31.269Z,94871.38
2023-04-02T18:24:21.184Z,94874.94
2023-04-02T18:26:58.286Z,94879.78
2023-04-02T18:29:33.602Z,94880.34
2023-04-02T18:32:30.985Z,94880.22
2023-04-02T18:35:12.135Z,94877.25
2023-04-02T18:37:52.870Z,94883.59
2023-04-02T18:40:34.683Z,94897.16
2023-04-02T18:43:10.525Z,94906.81
2023-04-02T18:45:48.614Z,94907.63
2023-04-02T18:48:31.434Z,94906.41
2023-04-02T18:51:00.759Z,94903.66
2023-04-02T18:53:30.213Z,94912.97
2023-04-02T18:56:00.274Z,94911.72
2023-04-02T18:58:33.871Z,94920.00
2023-04-02T19:01:04.462Z,94924.06
2023-04-02T19:03:36.565Z,94923.81
2023-04-02T19:06:07.453Z,94936.50
2023-04-02T19:08:39.550Z,94948.47
2023-04-02T19:11:11.904Z,94950.81
2023-04-02T19:13:38.502Z,94944.69
2023-04-02T19:16:28.697Z,94950.72
2023-04-02T19:19:03.319Z,94958.34
2023-04-02T19:21:39.884Z,94970.50
2023-04-02T19:24:30.374Z,94970.13
2023-04-02T19:27:03.426Z,94967.97
2023-04-02T19:29:44.978Z,94970.53
2023-04-02T19:32:23.253Z,94981.72
2023-04-02T19:34:55.895Z,94976.66
2023-04-02T19:37:32.655Z,94990.22
2023-04-02T19:40:26.407Z,94989.84
2023-04-02T19:42:54.289Z,94990.28
2023-04-02T19:45:35.521Z,95013.50
2023-04-02T19:48:11.290Z,95006.38
2023-04-02T19:50:38.057Z,95010.84
2023-04-02T19:53:06.025Z,95012.28
2023-04-02T19:55:32.713Z,95018.34
2023-04-02T19:58:12.718Z,95025.63
2023-04-02T20:00:45.773Z,95022.09
2023-04-02T20:03:12.368Z,95023.59
2023-04-02T20:05:39.129Z,95031.41
2023-04-02T20:08:07.254Z,95039.06
2023-04-02T20:10:33.931Z,95046.84
2023-04-02T20:13:00.606Z,95042.63
2023-04-02T20:15:27.799Z,95053.88
2023-04-02T20:17:54.460Z,95064.56
2023-04-02T20:20:21.150Z,95057.16
2023-04-02T20:22:47.931Z,95058.44
2023-04-02T20:25:16.107Z,95063.66
2023-04-02T20:27:42.675Z,95073.84
2023-04-02T20:30:09.774Z,95075.13
2023-04-02T20:32:37.976Z,95081.41
2023-04-02T20:35:06.043Z,95082.34
2023-04-02T20:37:32.729Z,95091.66
2023-04-02T20:39:59.374Z,95083.16
2023-04-02T20:42:27.771Z,95094.75
2023-04-02T20:44:54.363Z,95093.69
2023-04-02T20:47:20.937Z,95095.66
2023-04-02T20:49:47.580Z,95102.16
2023-04-02T20:52:14.184Z,95115.72
2023-04-02T20:54:40.950Z,95110.28
2023-04-02T20:57:07.763Z,95114.38
2023-04-02T20:59:35.889Z,95116.00
2023-04-02T21:02:02.525Z,95125.34
2023-04-02T21:04:29.110Z,95126.44
2023-04-02T21:06:57.134Z,95131.59
2023-04-02T21:09:23.857Z,95133.94
2023-04-02T21:11:50.548Z,95135.66
2023-04-02T21:14:17.673Z,95149.13
2023-04-02T21:16:45.655Z,95146.13
2023-04-02T21:19:12.498Z,95150.22
2023-04-02T21:21:40.557Z,95153.69
2023-04-02T21:24:08.945Z,95159.69
2023-04-02T21:26:37.316Z,95179.53
2023-04-02T21:29:04.727Z,95175.84
2023-04-02T21:31:34.784Z,95187.97
2023-04-02T21:34:04.050Z,95181.47
2023-04-02T21:36:32.477Z,95182.94
2023-04-02T21:39:02.225Z,95184.59
2023-04-02T21:41:29.780Z,95198.75
2023-04-02T21:43:57.746Z,95158.03
2023-04-02T21:46:25.962Z,95199.41
2023-04-02T21:48:54.498Z,95205.75
2023-04-02T21:51:23.991Z,95202.41
2023-04-02T21:53:50.978Z,95203.63
2023-04-02T21:56:18.865Z,95217.28
2023-04-02T21:58:47.380Z,95218.41
2023-04-02T22:01:26.551Z,95223.75
2023-04-02T22:03:53.587Z,95238.72
2023-04-02T22:06:23.049Z,95234.56
2023-04-02T22:08:53.991Z,95236.88
2023-04-02T22:11:22.886Z,95249.16
2023-04-02T22:13:50.036Z,95243.91
2023-04-02T22:16:19.566Z,95245.25
2023-04-02T22:18:47.509Z,95244.13
2023-04-02T22:21:15.406Z,95242.09
2023-04-02T22:23:44.263Z,95239.81
2023-04-02T22:26:12.100Z,95248.94
2023-04-02T22:28:38.951Z,95252.81
2023-04-02T22:31:07.847Z,95255.47
2023-04-02T22:33:35.612Z,95262.16
2023-04-02T22:36:02.268Z,95263.16
2023-04-02T22:38:28.884Z,95254.22
2023-04-02T22:41:06.531Z,95253.41
2023-04-02T22:43:33.478Z,95256.28
2023-04-02T22:46:00.275Z,95254.84
2023-04-02T22:48:27.023Z,95264.06
2023-04-02T22:50:53.963Z,95256.94
2023-04-02T22:53:20.509Z,95263.22
2023-04-02T22:55:47.459Z,95263.22
2023-04-02T22:58:15.356Z,95268.50
2023-04-02T23:00:42.219Z,95260.56
2023-04-02T23:03:08.927Z,95265.84
2023-04-02T23:05:35.495Z,95262.59
2023-04-02T23:08:02.065Z,95267.28
2023-04-02T23:10:29.055Z,95266.47
2023-04-02T23:12:57.228Z,95266.69
2023-04-02T23:15:25.401Z,95264.88
2023-04-02T23:17:52.014Z,95274.84
2023-04-02T23:20:18.739Z,95273.03
2023-04-02T23:22:45.445Z,95266.28
2023-04-02T23:25:12.009Z,95271.16
2023-04-02T23:27:38.608Z,95264.06
2023-04-02T23:30:06.857Z,95265.88
2023-04-02T23:32:34.852Z,95270.38
2023-04-02T23:35:01.432Z,95271.81
2023-04-02T23:37:28.020Z,95269.56
2023-04-02T23:39:54.560Z,95268.94
2023-04-02T23:42:21.247Z,95261.84
2023-04-02T23:44:47.809Z,95265.28
2023-04-02T23:47:14.334Z,95266.72
2023-04-02T23:49:47.483Z,95261.06
2023-04-02T23:52:14.388Z,95272.44
2023-04-02T23:54:40.989Z,95267.75
2023-04-02T23:57:07.638Z,95265.31
2023-04-02T23:59:34.262Z,95269.41
